createdAt,value
2017-10-18T00:01:59.577Z,38.87
2017-10-18T00:04:27.142Z,41.70
2017-10-18T00:06:54.727Z,41.13
2017-10-18T00:09:22.293Z,40.60
2017-10-18T00:11:50.229Z,39.03
2017-10-18T00:14:17.818Z,39.53
2017-10-18T00:16:45.367Z,38.90
2017-10-18T00:19:12.925Z,39.47
2017-10-18T00:21:40.471Z,38.07
2017-10-18T00:24:08.016Z,39.50
2017-10-18T00:26:35.983Z,38.17
2017-10-18T00:29:03.531Z,38.47
2017-10-18T00:31:31.106Z,36.70
2017-10-18T00:33:58.649Z,36.00
2017-10-18T00:36:26.185Z,34.60
2017-10-18T00:38:54.135Z,35.27
2017-10-18T00:41:21.677Z,34.50
2017-10-18T00:43:49.216Z,33.47
2017-10-18T00:46:16.757Z,34.87
2017-10-18T00:48:44.338Z,36.20
2017-10-18T00:51:11.884Z,35.77
2017-10-18T00:53:39.404Z,34.33
2017-10-18T00:56:07.362Z,33.43
2017-10-18T00:58:34.921Z,34.63
2017-10-18T01:01:02.492Z,33.40
2017-10-18T01:03:30.038Z,32.60
2017-10-18T01:05:57.649Z,33.60
2017-10-18T01:08:25.196Z,34.90
2017-10-18T01:10:52.766Z,32.00
2017-10-18T01:13:20.334Z,33.00
2017-10-18T01:15:48.069Z,33.00
2017-10-18T01:18:15.616Z,33.00
2017-10-18T01:20:43.153Z,31.30
2017-10-18T01:23:10.997Z,34.03
2017-10-18T01:25:38.541Z,34.57
2017-10-18T01:28:06.485Z,31.57
2017-10-18T01:30:34.042Z,33.30
2017-10-18T01:33:01.589Z,33.70
2017-10-18T01:35:29.159Z,33.07
2017-10-18T01:37:57.096Z,35.20
2017-10-18T01:40:24.638Z,34.10
2017-10-18T01:42:52.184Z,35.30
2017-10-18T01:45:19.729Z,36.13
2017-10-18T01:47:47.701Z,35.00
2017-10-18T01:50:15.266Z,36.07
2017-10-18T01:52:43.651Z,35.07
2017-10-18T01:55:11.226Z,32.73
2017-10-18T01:57:38.759Z,33.80
2017-10-18T02:00:06.328Z,33.57
2017-10-18T02:02:33.887Z,35.40
2017-10-18T02:05:01.421Z,33.17
2017-10-18T02:07:28.990Z,33.60
2017-10-18T02:09:56.525Z,34.23
2017-10-18T02:12:24.105Z,33.20
2017-10-18T02:14:51.686Z,34.00
2017-10-18T02:17:19.224Z,31.60
2017-10-18T02:19:46.800Z,33.30
2017-10-18T02:22:14.333Z,32.97
2017-10-18T02:24:41.918Z,33.50
2017-10-18T02:27:09.843Z,34.07
2017-10-18T02:29:37.419Z,31.90
2017-10-18T02:32:04.948Z,33.53
2017-10-18T02:34:32.494Z,31.53
2017-10-18T02:37:00.044Z,31.50
2017-10-18T02:39:27.595Z,31.60
2017-10-18T02:41:55.148Z,30.50
2017-10-18T02:44:22.679Z,30.00
2017-10-18T02:46:50.289Z,31.97
2017-10-18T02:49:17.828Z,30.70
2017-10-18T02:51:45.370Z,32.47
2017-10-18T02:54:12.929Z,32.40
2017-10-18T02:56:40.470Z,31.20
2017-10-18T02:59:08.040Z,30.80
2017-10-18T03:01:35.597Z,31.83
2017-10-18T03:04:03.189Z,32.70
2017-10-18T03:06:30.742Z,32.60
2017-10-18T03:08:58.680Z,28.90
2017-10-18T03:11:26.232Z,33.00
2017-10-18T03:13:53.799Z,31.97
2017-10-18T03:16:21.352Z,32.80
2017-10-18T03:18:48.885Z,32.77
2017-10-18T03:21:16.444Z,34.00
2017-10-18T03:23:43.991Z,32.80
2017-10-18T03:26:11.526Z,32.27
2017-10-18T03:28:39.489Z,32.07
2017-10-18T03:31:07.030Z,32.27
2017-10-18T03:33:34.577Z,31.20
2017-10-18T03:36:02.115Z,32.87
2017-10-18T03:38:29.702Z,32.07
2017-10-18T03:40:57.244Z,32.77
2017-10-18T03:43:24.782Z,32.90
2017-10-18T03:45:52.332Z,32.87
2017-10-18T03:48:19.884Z,33.83
2017-10-18T03:50:47.444Z,34.10
2017-10-18T03:53:16.462Z,35.10
2017-10-18T03:55:45.460Z,33.03
2017-10-18T03:58:13.386Z,32.43
2017-10-18T04:00:40.917Z,32.30
2017-10-18T04:03:08.866Z,32.20
2017-10-18T04:05:36.432Z,32.10
2017-10-18T04:08:03.996Z,31.63
2017-10-18T04:10:31.569Z,32.70
2017-10-18T04:12:59.134Z,30.87
2017-10-18T04:15:26.690Z,33.27
2017-10-18T04:17:54.288Z,34.27
2017-10-18T04:20:21.864Z,35.07
2017-10-18T04:22:49.396Z,34.40
2017-10-18T04:25:16.958Z,32.27
2017-10-18T04:27:44.484Z,33.27
2017-10-18T04:30:12.062Z,34.47
2017-10-18T04:32:39.606Z,33.50
2017-10-18T04:35:07.145Z,33.50
2017-10-18T04:37:34.706Z,34.07
2017-10-18T04:40:02.246Z,34.43
2017-10-18T04:42:30.213Z,33.40
2017-10-18T04:44:58.198Z,31.40
2017-10-18T04:47:25.779Z,33.07
2017-10-18T04:49:53.354Z,33.47
2017-10-18T04:52:20.898Z,33.00
2017-10-18T04:54:48.448Z,31.77
2017-10-18T04:57:15.993Z,31.57
2017-10-18T04:59:43.948Z,34.37
2017-10-18T05:02:11.506Z,33.27
2017-10-18T05:04:39.048Z,33.43
2017-10-18T05:07:06.603Z,32.67
2017-10-18T05:09:34.175Z,33.47
2017-10-18T05:12:01.762Z,33.27
2017-10-18T05:14:29.305Z,35.20
2017-10-18T05:16:56.883Z,33.40
2017-10-18T05:19:24.433Z,32.17
2017-10-18T05:21:51.981Z,32.30
2017-10-18T05:24:19.550Z,30.13
2017-10-18T05:26:47.070Z,32.60
2017-10-18T05:29:14.625Z,32.50
2017-10-18T05:31:44.086Z,32.43
2017-10-18T05:34:16.615Z,33.57
2017-10-18T05:36:44.159Z,33.17
2017-10-18T05:39:11.700Z,33.37
2017-10-18T05:41:39.255Z,31.13
2017-10-18T05:44:06.795Z,32.43
2017-10-18T05:46:34.343Z,33.07
2017-10-18T05:49:01.886Z,31.10
2017-10-18T05:51:29.420Z,32.87
2017-10-18T05:53:56.969Z,33.20
2017-10-18T05:56:24.500Z,31.43
2017-10-18T05:58:52.069Z,31.90
2017-10-18T06:01:19.612Z,32.57
2017-10-18T06:03:47.189Z,31.35
2017-10-18T06:06:15.122Z,32.67
2017-10-18T06:08:42.676Z,32.10
2017-10-18T06:11:10.259Z,32.33
2017-10-18T06:13:37.790Z,32.00
2017-10-18T06:16:05.331Z,31.93
2017-10-18T06:18:32.894Z,30.50
2017-10-18T06:21:00.425Z,30.80
2017-10-18T06:23:27.980Z,29.40
2017-10-18T06:25:55.529Z,29.83
2017-10-18T06:28:23.092Z,30.57
2017-10-18T06:30:50.634Z,32.00
2017-10-18T06:33:18.161Z,30.00
2017-10-18T06:35:45.709Z,28.43
2017-10-18T06:38:13.246Z,30.00
2017-10-18T06:40:40.798Z,30.13
2017-10-18T06:43:08.330Z,30.90
2017-10-18T06:45:35.913Z,30.73
2017-10-18T06:48:03.841Z,28.90
2017-10-18T06:50:31.375Z,28.05
2017-10-18T06:52:58.940Z,30.07
2017-10-18T06:55:26.495Z,27.23
2017-10-18T06:57:54.470Z,26.30
2017-10-18T07:00:21.996Z,25.90
2017-10-18T07:02:49.580Z,24.57
2017-10-18T07:05:17.126Z,24.50
2017-10-18T07:07:44.668Z,25.30
2017-10-18T07:10:12.219Z,25.30
2017-10-18T07:12:39.769Z,23.10
2017-10-18T07:15:07.315Z,22.47
2017-10-18T07:17:34.850Z,23.40
2017-10-18T07:20:02.427Z,19.00
2017-10-18T07:22:30.000Z,19.63
2017-10-18T07:24:57.533Z,19.40
2017-10-18T07:27:25.083Z,18.60
2017-10-18T07:29:52.619Z,18.00
2017-10-18T07:32:20.173Z,18.03
2017-10-18T07:34:47.706Z,16.30
2017-10-18T07:37:15.278Z,16.97
2017-10-18T07:39:42.807Z,16.60
2017-10-18T07:42:10.342Z,15.90
2017-10-18T07:44:37.887Z,15.73
2017-10-18T07:47:05.436Z,14.23
2017-10-18T07:49:33.007Z,16.60
2017-10-18T07:52:00.938Z,15.93
2017-10-18T07:54:28.492Z,15.37
2017-10-18T07:56:56.033Z,16.27
2017-10-18T07:59:23.971Z,17.27
2017-10-18T08:01:51.522Z,16.67
2017-10-18T08:04:19.068Z,15.00
2017-10-18T08:06:46.622Z,14.67
2017-10-18T08:09:14.164Z,16.33
2017-10-18T08:11:41.726Z,15.40
2017-10-18T08:14:09.253Z,13.97
2017-10-18T08:16:36.788Z,14.20
2017-10-18T08:19:04.329Z,14.77
2017-10-18T08:21:31.878Z,13.40
2017-10-18T08:23:59.453Z,13.53
2017-10-18T08:26:27.157Z,12.83
2017-10-18T08:28:54.708Z,13.57
2017-10-18T08:31:22.390Z,13.47
2017-10-18T08:33:49.934Z,13.07
2017-10-18T08:36:17.487Z,12.60
2017-10-18T08:38:45.414Z,13.20
2017-10-18T08:41:12.970Z,13.03
2017-10-18T08:43:40.514Z,11.93
2017-10-18T08:46:08.155Z,14.00
2017-10-18T08:48:35.700Z,13.50
2017-10-18T08:51:03.238Z,14.40
2017-10-18T08:53:30.789Z,13.70
2017-10-18T08:55:58.725Z,13.83
2017-10-18T08:58:26.284Z,13.20
2017-10-18T09:00:53.816Z,12.97
2017-10-18T09:03:21.782Z,12.83
2017-10-18T09:05:49.342Z,13.47
2017-10-18T09:08:16.880Z,12.70
2017-10-18T09:10:44.433Z,12.83
2017-10-18T09:13:11.978Z,12.77
2017-10-18T09:15:39.930Z,12.63
2017-10-18T09:18:07.471Z,12.27
2017-10-18T09:20:35.055Z,12.20
2017-10-18T09:23:02.618Z,13.13
2017-10-18T09:25:30.147Z,11.97
2017-10-18T09:27:58.084Z,11.50
2017-10-18T09:30:25.630Z,11.73
2017-10-18T09:32:53.189Z,13.20
2017-10-18T09:35:20.725Z,11.53
2017-10-18T09:37:48.303Z,11.70
2017-10-18T09:40:15.831Z,12.10
2017-10-18T09:42:44.084Z,11.70
2017-10-18T09:45:12.032Z,10.83
2017-10-18T09:47:39.585Z,9.73
2017-10-18T09:50:07.136Z,10.80
2017-10-18T09:52:34.726Z,11.63
2017-10-18T09:55:02.273Z,11.00
2017-10-18T09:57:29.824Z,10.30
2017-10-18T09:59:57.358Z,10.90
2017-10-18T10:02:24.904Z,10.90
2017-10-18T10:04:52.434Z,10.80
2017-10-18T10:07:20.383Z,10.50
2017-10-18T10:09:47.944Z,10.20
2017-10-18T10:12:15.517Z,10.33
2017-10-18T10:14:43.051Z,9.97
2017-10-18T10:17:10.589Z,11.50
2017-10-18T10:19:38.126Z,9.80
2017-10-18T10:22:05.687Z,10.03
2017-10-18T10:24:33.237Z,9.50
2017-10-18T10:27:00.766Z,9.53
2017-10-18T10:29:28.328Z,10.77
2017-10-18T10:31:55.853Z,11.03
2017-10-18T10:34:23.379Z,9.17
2017-10-18T10:36:50.924Z,10.97
2017-10-18T10:39:18.472Z,10.53
2017-10-18T10:41:46.034Z,10.43
2017-10-18T10:44:13.567Z,10.63
2017-10-18T10:46:41.149Z,9.00
2017-10-18T10:49:08.666Z,8.90
2017-10-18T10:51:36.208Z,9.50
2017-10-18T10:54:03.758Z,9.27
2017-10-18T10:56:31.281Z,8.80
2017-10-18T10:58:58.844Z,8.83
2017-10-18T11:01:26.393Z,8.70
2017-10-18T11:03:53.953Z,8.13
2017-10-18T11:06:21.889Z,8.10
2017-10-18T11:08:49.415Z,7.63
2017-10-18T11:11:16.968Z,8.00
2017-10-18T11:13:44.969Z,8.17
2017-10-18T11:16:12.499Z,7.40
2017-10-18T11:18:40.026Z,8.20
2017-10-18T11:21:07.574Z,7.70
2017-10-18T11:23:35.498Z,7.53
2017-10-18T11:26:03.051Z,7.83
2017-10-18T11:28:30.578Z,8.40
2017-10-18T11:30:58.534Z,8.30
2017-10-18T11:33:26.059Z,8.10
2017-10-18T11:35:53.597Z,8.63
2017-10-18T11:38:21.137Z,8.70
2017-10-18T11:40:49.082Z,7.70
2017-10-18T11:43:16.638Z,8.90
2017-10-18T11:45:44.569Z,7.80
2017-10-18T11:48:12.122Z,7.77
2017-10-18T11:50:39.652Z,8.60
2017-10-18T11:53:07.222Z,7.90
2017-10-18T11:55:34.746Z,9.20
2017-10-18T11:58:02.296Z,7.40
2017-10-18T12:00:29.827Z,8.00
2017-10-18T12:02:57.382Z,7.87
2017-10-18T12:05:24.926Z,8.67
2017-10-18T12:07:52.479Z,9.30
2017-10-18T12:10:20.013Z,7.80
2017-10-18T12:12:47.554Z,8.27
2017-10-18T12:15:15.107Z,7.90
2017-10-18T12:17:42.668Z,7.43
2017-10-18T12:20:10.190Z,7.90
2017-10-18T12:22:37.758Z,8.17
2017-10-18T12:25:05.280Z,7.83
2017-10-18T12:27:32.823Z,7.03
2017-10-18T12:30:00.749Z,7.43
2017-10-18T12:32:28.301Z,7.20
2017-10-18T12:34:55.927Z,7.63
2017-10-18T12:37:23.452Z,7.60
2017-10-18T12:39:50.991Z,6.57
2017-10-18T12:42:18.926Z,7.83
2017-10-18T12:44:46.473Z,6.93
2017-10-18T12:47:14.013Z,6.97
2017-10-18T12:49:41.957Z,6.97
2017-10-18T12:52:09.481Z,7.30
2017-10-18T12:54:37.030Z,6.30
2017-10-18T12:57:04.953Z,6.73
2017-10-18T12:59:32.527Z,6.90
2017-10-18T13:02:00.065Z,6.73
2017-10-18T13:04:28.026Z,6.53
2017-10-18T13:06:55.558Z,7.17
2017-10-18T13:09:23.111Z,8.27
2017-10-18T13:11:50.637Z,7.20
2017-10-18T13:14:18.194Z,7.43
2017-10-18T13:16:45.737Z,6.77
2017-10-18T13:19:13.279Z,7.07
2017-10-18T13:21:41.216Z,6.90
2017-10-18T13:24:08.758Z,7.07
2017-10-18T13:26:36.313Z,7.47
2017-10-18T13:29:03.867Z,7.07
2017-10-18T13:31:31.428Z,7.00
2017-10-18T13:33:58.958Z,7.50
2017-10-18T13:36:26.501Z,7.40
2017-10-18T13:38:54.039Z,6.70
2017-10-18T13:41:21.585Z,7.43
2017-10-18T13:43:49.172Z,7.23
2017-10-18T13:46:17.126Z,7.90
2017-10-18T13:48:44.673Z,7.13
2017-10-18T13:51:12.234Z,6.57
2017-10-18T13:53:39.790Z,7.63
2017-10-18T13:56:07.322Z,7.50
2017-10-18T13:58:34.853Z,7.70
2017-10-18T14:01:02.422Z,7.57
2017-10-18T14:03:29.959Z,7.80
2017-10-18T14:05:57.502Z,7.77
2017-10-18T14:08:25.038Z,8.97
2017-10-18T14:10:52.586Z,8.73
2017-10-18T14:13:20.128Z,7.73
2017-10-18T14:15:47.659Z,7.90
2017-10-18T14:18:15.212Z,7.43
2017-10-18T14:20:43.166Z,7.90
2017-10-18T14:23:10.703Z,7.17
2017-10-18T14:25:38.229Z,7.43
2017-10-18T14:28:05.790Z,8.63
2017-10-18T14:30:33.316Z,21.13
2017-10-18T14:33:00.881Z,10.30
2017-10-18T14:35:28.432Z,9.10
2017-10-18T14:37:55.989Z,11.10
2017-10-18T14:40:23.926Z,9.60
2017-10-18T14:42:51.542Z,9.73
2017-10-18T14:45:19.472Z,12.83
2017-10-18T14:47:47.025Z,9.93
2017-10-18T14:50:14.543Z,8.20
2017-10-18T14:52:42.117Z,8.57
2017-10-18T14:55:09.644Z,7.90
2017-10-18T14:57:37.181Z,8.00
2017-10-18T15:00:04.725Z,8.77
2017-10-18T15:02:32.270Z,9.07
2017-10-18T15:04:59.788Z,8.20
2017-10-18T15:07:27.842Z,7.67
2017-10-18T15:09:55.555Z,7.93
2017-10-18T15:12:23.099Z,7.07
2017-10-18T15:14:50.644Z,7.43
2017-10-18T15:17:18.194Z,7.70
2017-10-18T15:19:46.105Z,8.33
2017-10-18T15:22:13.642Z,8.73
2017-10-18T15:24:41.185Z,7.63
2017-10-18T15:27:09.117Z,8.60
2017-10-18T15:29:36.711Z,8.60
2017-10-18T15:32:04.248Z,8.83
2017-10-18T15:34:31.791Z,8.30
2017-10-18T15:36:59.314Z,8.47
2017-10-18T15:39:26.842Z,9.10
2017-10-18T15:41:54.381Z,8.43
2017-10-18T15:44:22.344Z,8.93
2017-10-18T15:46:49.882Z,8.77
2017-10-18T15:49:17.421Z,8.97
2017-10-18T15:51:45.355Z,9.17
2017-10-18T15:54:12.889Z,9.10
2017-10-18T15:56:40.462Z,10.53
2017-10-18T15:59:08.009Z,9.80
2017-10-18T16:01:35.973Z,9.90
2017-10-18T16:04:03.500Z,11.07
2017-10-18T16:06:31.065Z,11.87
2017-10-18T16:08:58.598Z,14.20
2017-10-18T16:11:26.652Z,9.97
2017-10-18T16:13:54.205Z,9.63
2017-10-18T16:16:21.896Z,9.87
2017-10-18T16:18:49.443Z,10.90
2017-10-18T16:21:17.091Z,9.77
2017-10-18T16:23:44.628Z,11.10
2017-10-18T16:26:12.264Z,9.73
2017-10-18T16:28:39.924Z,10.93
2017-10-18T16:31:07.655Z,10.60
2017-10-18T16:33:35.758Z,10.37
2017-10-18T16:36:03.443Z,10.27
2017-10-18T16:38:30.976Z,10.80
2017-10-18T16:40:58.837Z,10.60
2017-10-18T16:43:26.365Z,10.47
2017-10-18T16:45:54.331Z,9.90
2017-10-18T16:48:21.891Z,10.63
2017-10-18T16:50:49.836Z,10.10
2017-10-18T16:53:17.395Z,11.10
2017-10-18T16:55:44.920Z,9.57
2017-10-18T16:58:12.493Z,10.90
2017-10-18T17:00:40.610Z,10.23
2017-10-18T17:03:08.194Z,10.80
2017-10-18T17:05:35.737Z,10.00
2017-10-18T17:08:03.696Z,10.03
2017-10-18T17:10:31.282Z,11.20
2017-10-18T17:12:58.840Z,10.60
2017-10-18T17:15:26.393Z,10.17
2017-10-18T17:17:53.952Z,10.20
2017-10-18T17:20:21.492Z,10.70
2017-10-18T17:22:49.038Z,11.37
2017-10-18T17:25:16.971Z,11.13
2017-10-18T17:27:44.531Z,11.77
2017-10-18T17:30:12.064Z,10.97
2017-10-18T17:32:40.206Z,10.93
2017-10-18T17:35:07.741Z,12.20
2017-10-18T17:37:35.286Z,11.33
2017-10-18T17:40:02.838Z,12.30
2017-10-18T17:42:30.374Z,10.97
2017-10-18T17:44:57.951Z,11.57
2017-10-18T17:47:25.484Z,11.97
2017-10-18T17:49:53.041Z,11.87
2017-10-18T17:52:20.580Z,11.67
2017-10-18T17:54:48.147Z,11.17
2017-10-18T17:57:15.694Z,12.40
2017-10-18T17:59:43.237Z,11.13
2017-10-18T18:02:11.193Z,11.80
2017-10-18T18:04:38.770Z,12.50
2017-10-18T18:07:06.313Z,11.70
2017-10-18T18:09:33.863Z,11.73
2017-10-18T18:12:01.448Z,11.90
2017-10-18T18:14:29.020Z,12.23
2017-10-18T18:16:56.557Z,12.70
2017-10-18T18:19:24.503Z,11.30
2017-10-18T18:21:52.035Z,12.27
2017-10-18T18:24:19.566Z,11.80
2017-10-18T18:26:47.520Z,13.27
2017-10-18T18:29:15.041Z,11.50
2017-10-18T18:31:42.985Z,11.30
2017-10-18T18:34:10.559Z,12.37
2017-10-18T18:36:38.118Z,12.23
2017-10-18T18:39:05.737Z,12.27
2017-10-18T18:41:33.706Z,11.63
2017-10-18T18:44:01.691Z,12.20
2017-10-18T18:46:29.661Z,11.40
2017-10-18T18:48:57.242Z,12.00
2017-10-18T18:51:24.864Z,11.97
2017-10-18T18:53:52.413Z,12.30
2017-10-18T18:56:19.967Z,12.07
2017-10-18T18:58:47.537Z,11.80
2017-10-18T19:01:15.080Z,11.50
2017-10-18T19:03:42.619Z,11.70
2017-10-18T19:06:10.226Z,13.10
2017-10-18T19:08:37.800Z,12.03
2017-10-18T19:11:05.353Z,12.50
2017-10-18T19:13:32.892Z,12.93
2017-10-18T19:16:00.428Z,12.63
2017-10-18T19:18:28.494Z,12.17
2017-10-18T19:20:56.037Z,12.10
2017-10-18T19:23:23.609Z,12.73
2017-10-18T19:25:51.156Z,13.80
2017-10-18T19:28:18.706Z,12.80
2017-10-18T19:30:46.242Z,12.40
2017-10-18T19:33:14.299Z,11.40
2017-10-18T19:35:41.859Z,12.10
2017-10-18T19:38:09.431Z,11.40
2017-10-18T19:40:36.979Z,11.63
2017-10-18T19:43:04.954Z,13.87
2017-10-18T19:45:32.898Z,13.43
2017-10-18T19:48:00.652Z,13.30
2017-10-18T19:50:28.197Z,12.93
2017-10-18T19:52:55.793Z,13.27
2017-10-18T19:55:23.331Z,12.40
2017-10-18T19:57:51.432Z,11.70
2017-10-18T20:00:18.961Z,12.50
2017-10-18T20:02:46.700Z,13.00
2017-10-18T20:05:14.274Z,13.40
2017-10-18T20:07:41.869Z,13.23
2017-10-18T20:10:09.453Z,13.00
2017-10-18T20:12:37.185Z,13.67
2017-10-18T20:15:04.787Z,13.73
2017-10-18T20:17:32.396Z,12.40
2017-10-18T20:20:00.356Z,13.10
2017-10-18T20:22:27.932Z,12.70
2017-10-18T20:24:55.505Z,13.67
2017-10-18T20:27:23.064Z,14.40
2017-10-18T20:29:50.624Z,13.30
2017-10-18T20:32:18.264Z,13.30
2017-10-18T20:34:45.827Z,13.30
2017-10-18T20:37:13.392Z,14.30
2017-10-18T20:39:41.523Z,12.63
2017-10-18T20:42:09.170Z,12.97
2017-10-18T20:44:36.720Z,14.03
2017-10-18T20:47:04.716Z,12.80
2017-10-18T20:49:32.261Z,13.37
2017-10-18T20:52:00.221Z,12.33
2017-10-18T20:54:27.765Z,13.50
2017-10-18T20:56:55.320Z,13.30
2017-10-18T20:59:22.917Z,12.37
2017-10-18T21:01:50.533Z,15.10
2017-10-18T21:04:18.480Z,12.90
2017-10-18T21:06:46.013Z,14.03
2017-10-18T21:09:13.565Z,13.07
2017-10-18T21:11:41.475Z,15.33
2017-10-18T21:14:09.022Z,14.80
2017-10-18T21:16:36.966Z,14.77
2017-10-18T21:19:04.533Z,15.87
2017-10-18T21:21:32.073Z,15.93
2017-10-18T21:23:59.620Z,15.30
2017-10-18T21:26:27.186Z,16.43
2017-10-18T21:28:55.121Z,17.13
2017-10-18T21:31:22.689Z,16.13
2017-10-18T21:33:50.224Z,15.60
2017-10-18T21:36:17.964Z,16.03
2017-10-18T21:38:45.517Z,15.77
2017-10-18T21:41:13.073Z,16.20
2017-10-18T21:43:40.626Z,16.23
2017-10-18T21:46:08.167Z,16.47
2017-10-18T21:48:35.719Z,16.63
2017-10-18T21:51:03.660Z,15.70
2017-10-18T21:53:31.224Z,14.70
2017-10-18T21:55:58.769Z,14.93
2017-10-18T21:58:26.724Z,16.00
2017-10-18T22:00:54.284Z,16.03
2017-10-18T22:03:21.818Z,16.53
2017-10-18T22:05:49.381Z,15.13
2017-10-18T22:08:16.910Z,15.23
2017-10-18T22:10:45.065Z,15.53
2017-10-18T22:13:12.605Z,16.07
2017-10-18T22:15:40.164Z,16.40
2017-10-18T22:18:08.118Z,15.70
2017-10-18T22:20:35.659Z,17.00
2017-10-18T22:23:03.216Z,16.40
2017-10-18T22:25:30.747Z,17.37
2017-10-18T22:27:58.864Z,16.83
2017-10-18T22:30:26.406Z,16.03
2017-10-18T22:32:53.947Z,16.30
2017-10-18T22:35:21.509Z,16.50
2017-10-18T22:37:49.045Z,17.40
2017-10-18T22:40:16.606Z,17.00
2017-10-18T22:42:44.196Z,16.80
2017-10-18T22:45:11.777Z,16.37
2017-10-18T22:47:39.724Z,15.80
2017-10-18T22:50:07.325Z,16.27
2017-10-18T22:52:34.875Z,15.93
2017-10-18T22:55:02.460Z,16.60
2017-10-18T22:57:30.045Z,17.50
2017-10-18T22:59:57.596Z,19.23
2017-10-18T23:02:25.187Z,17.17
2017-10-18T23:04:52.729Z,17.07
2017-10-18T23:07:20.297Z,16.80
2017-10-18T23:09:47.862Z,16.97
2017-10-18T23:12:15.408Z,17.90
2017-10-18T23:14:42.969Z,17.67
2017-10-18T23:17:10.898Z,17.60
2017-10-18T23:19:38.446Z,18.10
2017-10-18T23:22:05.965Z,16.97
2017-10-18T23:24:33.521Z,16.97
2017-10-18T23:27:01.051Z,17.80
2017-10-18T23:29:28.594Z,18.87
2017-10-18T23:31:56.163Z,18.73
2017-10-18T23:34:23.692Z,18.07
2017-10-18T23:36:51.263Z,17.97
2017-10-18T23:39:18.808Z,18.10
2017-10-18T23:41:46.463Z,19.80
2017-10-18T23:44:14.446Z,18.77
2017-10-18T23:46:42.378Z,19.87
2017-10-18T23:49:09.891Z,18.80
2017-10-18T23:51:37.451Z,18.40
2017-10-18T23:54:05.002Z,18.60
2017-10-18T23:56:32.519Z,19.93
2017-10-18T23:59:00.081Z,19.10
